KAIA

Alliance Municipal Airport

Alliance, Nebraska, USA
METAR KAIA 160553Z AUTO 02005KT 10SM CLR M02/M05 A3020 RMK AO2 SLP231 T10221050 10117 21022 53020
Observed Flight Rules
Dec-16 @ 05:53 UTC (13 minutes ago) Visual Flight Rules
Wind Visibility Clouds
20° at 5 knots 10 miles
  • Clear skies
Temperatures Readings
Current -2°C / 28°F
Dewpoint -5°C / 23°F
Humidity 80%
Altimeter 30.2" Hg
Pressure 1023.1 hPa
Elevation 1196
METAR KAIA 160553Z AUTO 02005KT 10SM CLR M02/M05 A3020 RMK AO2 SLP231 T10221050 10117 21022 53020
Observed Flight Rules
Dec-16 @ 05:53 UTC
(13 minutes ago)
VFR
Wind Visibility
20° at 5 knots 10 miles
Clouds
  • Clear skies
Temperature Dewpoint
-2°C / 28°F -5°C / 23°F
Humidity Altimeter Pressure
80% 30.2" Hg 1023.1 hPa